createdAt,value
2023-04-01T00:00:46.935Z,63.14
2023-04-01T00:01:46.926Z,62.06
2023-04-01T00:02:47.011Z,61.25
2023-04-01T00:03:47.015Z,62.57
2023-04-01T00:04:46.966Z,62.34
2023-04-01T00:05:46.883Z,63.04
2023-04-01T00:06:46.874Z,61.64
2023-04-01T00:07:46.886Z,61.59
2023-04-01T00:08:46.881Z,61.69
2023-04-01T00:09:46.845Z,62.94
2023-04-01T00:10:46.829Z,59.57
2023-04-01T00:11:46.837Z,59.33
2023-04-01T00:12:46.808Z,58.04
2023-04-01T00:13:46.793Z,60.08
2023-04-01T00:14:46.783Z,60.35
2023-04-01T00:15:46.802Z,62.09
2023-04-01T00:16:46.767Z,60.94
2023-04-01T00:17:46.772Z,60.50
2023-04-01T00:18:46.720Z,59.84
2023-04-01T00:19:46.713Z,58.33
2023-04-01T00:20:46.720Z,57.67
2023-04-01T00:21:46.667Z,61.75
2023-04-01T00:22:46.653Z,58.69
2023-04-01T00:23:46.644Z,61.07
2023-04-01T00:24:46.628Z,60.46
2023-04-01T00:25:46.592Z,57.58
2023-04-01T00:26:46.587Z,58.89
2023-04-01T00:27:46.572Z,58.18
2023-04-01T00:28:46.554Z,58.68
2023-04-01T00:29:46.538Z,58.48
2023-04-01T00:30:46.536Z,58.26
2023-04-01T00:31:46.577Z,57.77
2023-04-01T00:32:46.532Z,58.92
2023-04-01T00:33:46.500Z,58.40
2023-04-01T00:34:46.496Z,56.62
2023-04-01T00:35:46.470Z,59.70
2023-04-01T00:36:46.452Z,59.09
2023-04-01T00:37:46.428Z,57.64
2023-04-01T00:38:46.417Z,58.76
2023-04-01T00:39:46.405Z,57.13
2023-04-01T00:40:46.381Z,57.78
2023-04-01T00:41:46.359Z,56.89
2023-04-01T00:42:46.353Z,54.50
2023-04-01T00:43:46.317Z,59.20
2023-04-01T00:44:46.287Z,56.94
2023-04-01T00:45:46.263Z,54.73
2023-04-01T00:46:46.305Z,59.47
2023-04-01T00:47:46.261Z,54.59
2023-04-01T00:48:46.218Z,56.38
2023-04-01T00:49:46.206Z,58.64
2023-04-01T00:50:46.174Z,58.69
2023-04-01T00:51:46.150Z,57.90
2023-04-01T00:52:46.134Z,57.53
2023-04-01T00:53:46.112Z,57.66
2023-04-01T00:54:46.098Z,59.00
2023-04-01T00:55:46.073Z,53.56
2023-04-01T00:56:46.160Z,57.61
2023-04-01T00:57:46.025Z,54.06
2023-04-01T00:58:46.010Z,57.11
2023-04-01T00:59:45.991Z,56.47
2023-04-01T01:00:45.971Z,55.56
2023-04-01T01:01:46.013Z,52.99
2023-04-01T01:02:46.020Z,54.10
2023-04-01T01:03:45.902Z,56.26
2023-04-01T01:04:45.876Z,55.57
2023-04-01T01:06:45.826Z,57.81
2023-04-01T01:07:45.791Z,56.87
2023-04-01T01:08:45.758Z,54.32
2023-04-01T01:09:45.749Z,56.11
2023-04-01T01:10:45.704Z,56.19
2023-04-01T01:11:45.687Z,54.09
2023-04-01T01:12:45.673Z,55.76
2023-04-01T01:13:45.664Z,55.43
2023-04-01T01:14:45.654Z,56.44
2023-04-01T01:15:45.678Z,54.77
2023-04-01T01:16:45.676Z,54.90
2023-04-01T01:17:45.611Z,53.73
2023-04-01T01:18:45.581Z,53.20
2023-04-01T01:19:45.587Z,54.28
2023-04-01T01:20:45.580Z,50.90
2023-04-01T01:21:45.568Z,53.01
2023-04-01T01:22:45.576Z,53.82
2023-04-01T01:23:45.561Z,53.63
2023-04-01T01:24:45.542Z,51.99
2023-04-01T01:25:45.508Z,53.26
2023-04-01T01:26:45.506Z,51.86
2023-04-01T01:27:45.476Z,54.03
2023-04-01T01:28:45.464Z,54.26
2023-04-01T01:29:45.463Z,53.75
2023-04-01T01:30:45.515Z,50.25
2023-04-01T01:31:45.401Z,52.39
2023-04-01T01:32:45.393Z,49.53
2023-04-01T01:33:45.372Z,53.41
2023-04-01T01:34:45.334Z,51.97
2023-04-01T01:35:45.344Z,50.65
2023-04-01T01:36:45.294Z,52.67
2023-04-01T01:37:45.295Z,51.13
2023-04-01T01:38:45.246Z,51.02
2023-04-01T01:39:45.236Z,47.92
2023-04-01T01:40:45.229Z,49.37
2023-04-01T01:41:45.201Z,51.04
2023-04-01T01:42:45.199Z,50.81
2023-04-01T01:43:45.195Z,52.04
2023-04-01T01:44:45.182Z,51.15
2023-04-01T01:45:45.203Z,49.62
2023-04-01T01:46:45.167Z,48.08
2023-04-01T01:47:45.180Z,49.87
2023-04-01T01:48:45.132Z,50.19
2023-04-01T01:49:45.095Z,50.35
2023-04-01T01:50:45.072Z,49.57
2023-04-01T01:51:45.061Z,50.44
2023-04-01T01:52:45.042Z,48.58
2023-04-01T01:53:45.020Z,50.85
2023-04-01T01:54:45.003Z,49.49
2023-04-01T01:55:44.982Z,50.34
2023-04-01T01:56:44.965Z,46.65
2023-04-01T01:57:44.942Z,50.00
2023-04-01T01:58:44.931Z,49.24
2023-04-01T01:59:44.907Z,48.42
2023-04-01T02:00:44.897Z,49.70
2023-04-01T02:01:44.918Z,48.17
2023-04-01T02:02:44.872Z,46.71
2023-04-01T02:03:44.845Z,46.74
2023-04-01T02:04:44.881Z,47.79
2023-04-01T02:05:44.810Z,47.13
2023-04-01T02:06:44.800Z,45.67
2023-04-01T02:07:44.814Z,47.22
2023-04-01T02:08:44.768Z,48.96
2023-04-01T02:09:44.769Z,47.67
2023-04-01T02:10:44.746Z,47.41
2023-04-01T02:11:44.720Z,45.98
2023-04-01T02:12:44.714Z,48.95
2023-04-01T02:13:44.685Z,49.31
2023-04-01T02:14:44.687Z,45.72
2023-04-01T02:15:44.674Z,47.73
2023-04-01T02:16:44.659Z,47.80
2023-04-01T02:17:44.699Z,47.14
2023-04-01T02:18:44.629Z,46.15
2023-04-01T02:19:44.620Z,46.83
2023-04-01T02:20:44.623Z,48.11
2023-04-01T02:21:44.591Z,49.07
2023-04-01T02:22:44.577Z,48.18
2023-04-01T02:23:44.562Z,47.46
2023-04-01T02:24:44.550Z,44.45
2023-04-01T02:25:44.520Z,47.09
2023-04-01T02:26:44.523Z,46.70
2023-04-01T02:27:44.488Z,49.63
2023-04-01T02:28:44.481Z,44.71
2023-04-01T02:29:44.461Z,46.45
2023-04-01T02:30:44.448Z,45.94
2023-04-01T02:31:44.453Z,45.52
2023-04-01T02:32:44.412Z,46.18
2023-04-01T02:33:44.386Z,44.02
2023-04-01T02:34:44.379Z,46.50
2023-04-01T02:35:44.388Z,43.99
2023-04-01T02:36:44.335Z,43.92
2023-04-01T02:37:44.323Z,43.71
2023-04-01T02:38:44.320Z,46.25
2023-04-01T02:39:44.296Z,46.09
2023-04-01T02:40:44.285Z,45.25
2023-04-01T02:41:44.272Z,46.65
2023-04-01T02:42:44.290Z,46.11
2023-04-01T02:43:44.239Z,45.00
2023-04-01T02:44:44.231Z,44.01
2023-04-01T02:45:44.206Z,44.41
2023-04-01T02:46:44.225Z,44.92
2023-04-01T02:47:44.184Z,45.57
2023-04-01T02:48:44.159Z,43.67
2023-04-01T02:49:44.149Z,43.41
2023-04-01T02:50:44.151Z,45.43
2023-04-01T02:51:44.245Z,45.42
2023-04-01T02:52:44.106Z,43.88
2023-04-01T02:53:44.084Z,45.17
2023-04-01T02:54:44.059Z,44.88
2023-04-01T02:55:44.053Z,44.50
2023-04-01T02:56:44.044Z,46.81
2023-04-01T02:57:44.033Z,43.42
2023-04-01T02:58:44.021Z,44.53
2023-04-01T02:59:44.007Z,43.44
2023-04-01T03:00:44.019Z,43.33
2023-04-01T03:01:43.983Z,44.28
2023-04-01T03:02:44.031Z,42.20
2023-04-01T03:03:43.941Z,42.96
2023-04-01T03:04:43.928Z,44.48
2023-04-01T03:05:43.938Z,45.92
2023-04-01T03:06:43.908Z,41.82
2023-04-01T03:07:43.901Z,41.77
2023-04-01T03:08:43.880Z,42.91
2023-04-01T03:09:43.865Z,41.10
2023-04-01T03:10:43.866Z,44.86
2023-04-01T03:11:43.840Z,44.19
2023-04-01T03:12:43.831Z,42.03
2023-04-01T03:13:43.802Z,42.49
2023-04-01T03:14:43.805Z,40.11
2023-04-01T03:15:43.792Z,43.80
2023-04-01T03:16:43.788Z,42.62
2023-04-01T03:17:43.801Z,40.88
2023-04-01T03:18:43.755Z,41.52
2023-04-01T03:19:43.758Z,42.16
2023-04-01T03:20:43.744Z,38.34
2023-04-01T03:21:43.727Z,42.16
2023-04-01T03:22:43.707Z,39.33
2023-04-01T03:23:43.712Z,40.55
2023-04-01T03:24:43.681Z,40.00
2023-04-01T03:25:43.667Z,41.13
2023-04-01T03:26:43.660Z,39.67
2023-04-01T03:27:43.645Z,41.69
2023-04-01T03:28:43.647Z,41.91
2023-04-01T03:29:43.699Z,39.31
2023-04-01T03:30:43.705Z,41.05
2023-04-01T03:31:43.627Z,39.39
2023-04-01T03:32:43.643Z,39.64
2023-04-01T03:33:43.612Z,40.09
2023-04-01T03:34:43.591Z,41.30
2023-04-01T03:35:43.584Z,41.26
2023-04-01T03:36:43.612Z,38.50
2023-04-01T03:37:43.569Z,38.55
2023-04-01T03:38:43.550Z,40.98
2023-04-01T03:39:44.703Z,39.71
2023-04-01T03:40:43.529Z,39.00
2023-04-01T03:41:43.516Z,39.43
2023-04-01T03:42:43.560Z,38.72
2023-04-01T03:43:43.488Z,38.32
2023-04-01T03:44:43.483Z,39.85
2023-04-01T03:45:43.462Z,40.58
2023-04-01T03:46:43.469Z,40.21
2023-04-01T03:47:43.483Z,39.70
2023-04-01T03:48:43.438Z,40.10
2023-04-01T03:49:43.439Z,39.20
2023-04-01T03:50:43.431Z,38.47
2023-04-01T03:51:43.433Z,40.33
2023-04-01T03:52:43.420Z,38.19
2023-04-01T03:53:43.433Z,38.42
2023-04-01T03:54:43.392Z,40.40
2023-04-01T03:55:43.373Z,37.37
2023-04-01T03:56:43.415Z,38.12
2023-04-01T03:57:43.393Z,40.11
2023-04-01T03:58:43.395Z,38.11
2023-04-01T03:59:43.366Z,37.61
2023-04-01T04:00:43.400Z,37.06
2023-04-01T04:01:43.382Z,39.90
2023-04-01T04:02:43.431Z,37.81
2023-04-01T04:03:43.458Z,39.34
2023-04-01T04:04:43.571Z,37.63
2023-04-01T04:05:43.377Z,36.16
2023-04-01T04:06:43.375Z,36.86
2023-04-01T04:07:43.360Z,37.86
2023-04-01T04:08:43.366Z,37.36
2023-04-01T04:09:43.337Z,35.81
2023-04-01T04:10:43.319Z,36.94
2023-04-01T04:11:43.306Z,35.96
2023-04-01T04:12:43.296Z,37.44
2023-04-01T04:13:43.306Z,33.17
2023-04-01T04:14:43.278Z,38.55
2023-04-01T04:15:43.284Z,36.24
2023-04-01T04:16:43.250Z,37.33
2023-04-01T04:17:43.300Z,37.02
2023-04-01T04:18:43.242Z,34.70
2023-04-01T04:19:43.228Z,35.49
2023-04-01T04:20:43.217Z,36.89
2023-04-01T04:21:43.222Z,33.77
2023-04-01T04:22:43.206Z,32.01
2023-04-01T04:23:43.220Z,36.05
2023-04-01T04:24:43.204Z,35.43
2023-04-01T04:25:43.197Z,34.75
2023-04-01T04:26:43.189Z,34.47
2023-04-01T04:27:43.187Z,35.98
2023-04-01T04:28:43.176Z,37.01
2023-04-01T04:29:43.166Z,34.40
2023-04-01T04:30:43.174Z,36.15
2023-04-01T04:31:43.272Z,32.76
2023-04-01T04:32:43.201Z,35.00
2023-04-01T04:33:43.143Z,32.69
2023-04-01T04:34:43.144Z,35.55
2023-04-01T04:35:43.152Z,34.63
2023-04-01T04:36:43.198Z,34.51
2023-04-01T04:37:43.115Z,33.11
2023-04-01T04:38:43.122Z,35.01
2023-04-01T04:39:43.117Z,35.48
2023-04-01T04:40:43.103Z,33.44
2023-04-01T04:41:43.097Z,36.59
2023-04-01T04:42:43.078Z,33.79
2023-04-01T04:43:43.085Z,33.09
2023-04-01T04:44:43.073Z,32.43
2023-04-01T04:45:43.053Z,35.16
2023-04-01T04:46:43.128Z,34.29
2023-04-01T04:47:43.071Z,33.62
2023-04-01T04:48:43.045Z,32.59
2023-04-01T04:49:43.044Z,34.13
2023-04-01T04:50:43.028Z,33.53
2023-04-01T04:51:43.019Z,32.26
2023-04-01T04:52:43.017Z,34.05
2023-04-01T04:53:43.014Z,35.14
2023-04-01T04:54:43.026Z,34.74
2023-04-01T04:55:42.992Z,33.82
2023-04-01T04:56:42.985Z,32.06
2023-04-01T04:57:42.990Z,31.47
2023-04-01T04:58:42.978Z,33.57
2023-04-01T04:59:42.960Z,29.99
2023-04-01T05:00:42.960Z,32.61
2023-04-01T05:01:42.990Z,32.39
2023-04-01T05:02:43.020Z,33.04
2023-04-01T05:03:42.974Z,30.72
2023-04-01T05:04:42.929Z,30.36
2023-04-01T05:05:42.924Z,34.09
2023-04-01T05:06:42.910Z,30.46
2023-04-01T05:07:42.914Z,31.12
2023-04-01T05:08:42.902Z,32.81
2023-04-01T05:09:42.904Z,32.61
2023-04-01T05:10:42.910Z,31.92
2023-04-01T05:11:42.896Z,28.94
2023-04-01T05:12:42.892Z,31.93
2023-04-01T05:13:42.886Z,30.72
2023-04-01T05:14:42.882Z,30.42
2023-04-01T05:15:42.884Z,30.60
2023-04-01T05:16:42.924Z,30.36
2023-04-01T05:17:42.930Z,30.59
2023-04-01T05:18:42.870Z,30.54
2023-04-01T05:19:42.861Z,29.78
2023-04-01T05:20:42.856Z,30.73
2023-04-01T05:21:42.841Z,29.56
2023-04-01T05:22:42.836Z,28.41
2023-04-01T05:23:42.847Z,27.52
2023-04-01T05:24:42.832Z,29.89
2023-04-01T05:25:42.840Z,30.11
2023-04-01T05:26:42.824Z,29.50
2023-04-01T05:27:42.821Z,31.71
2023-04-01T05:28:42.809Z,31.26
2023-04-01T05:29:42.801Z,30.68
2023-04-01T05:30:42.816Z,27.39
2023-04-01T05:31:42.784Z,28.63
2023-04-01T05:32:42.848Z,32.55
2023-04-01T05:33:42.787Z,29.06
2023-04-01T05:34:42.781Z,30.74
2023-04-01T05:35:42.834Z,27.90
2023-04-01T05:36:42.784Z,29.10
2023-04-01T05:37:42.772Z,26.73
2023-04-01T05:38:42.774Z,30.29
2023-04-01T05:39:42.767Z,28.74
2023-04-01T05:40:42.762Z,26.12
2023-04-01T05:41:42.745Z,28.56
2023-04-01T05:42:42.760Z,29.67
2023-04-01T05:43:42.757Z,27.26
2023-04-01T05:44:42.754Z,26.54
2023-04-01T05:45:42.747Z,28.71
2023-04-01T05:46:42.791Z,27.98
2023-04-01T05:47:42.743Z,32.30
2023-04-01T05:48:42.722Z,28.28
2023-04-01T05:49:42.723Z,26.78
2023-04-01T05:50:42.723Z,28.40
2023-04-01T05:51:42.722Z,30.28
2023-04-01T05:52:42.956Z,26.71
2023-04-01T05:53:42.716Z,27.32
2023-04-01T05:54:42.723Z,27.62
2023-04-01T05:55:42.708Z,28.20
2023-04-01T05:56:42.700Z,28.05
2023-04-01T05:57:42.707Z,29.11
2023-04-01T05:58:42.699Z,28.28
2023-04-01T05:59:42.710Z,28.04
2023-04-01T06:00:42.729Z,34.53
2023-04-01T06:01:42.714Z,31.59
2023-04-01T06:02:42.775Z,28.63
2023-04-01T06:03:42.863Z,29.80
2023-04-01T06:04:42.763Z,29.26
2023-04-01T06:05:42.699Z,28.83
2023-04-01T06:06:42.710Z,28.88
2023-04-01T06:07:42.697Z,28.84
2023-04-01T06:08:42.687Z,30.05
2023-04-01T06:09:42.692Z,25.00
2023-04-01T06:10:42.689Z,28.04
2023-04-01T06:11:42.698Z,29.05
2023-04-01T06:12:42.689Z,27.85
2023-04-01T06:13:42.681Z,26.36
2023-04-01T06:14:42.679Z,27.74
2023-04-01T06:15:42.676Z,28.60
2023-04-01T06:16:42.700Z,28.42
2023-04-01T06:17:43.806Z,28.96
2023-04-01T06:18:42.653Z,29.79
2023-04-01T06:19:42.637Z,28.10
2023-04-01T06:20:42.625Z,27.86
2023-04-01T06:21:42.623Z,28.69
2023-04-01T06:22:42.602Z,28.55
2023-04-01T06:23:42.602Z,28.83
2023-04-01T06:24:42.582Z,29.37
2023-04-01T06:25:42.560Z,28.02
2023-04-01T06:26:42.548Z,29.12
2023-04-01T06:27:42.526Z,28.54
2023-04-01T06:28:42.520Z,27.87
2023-04-01T06:29:42.512Z,27.27
2023-04-01T06:30:42.486Z,29.81
2023-04-01T06:31:42.492Z,29.84
2023-04-01T06:32:42.501Z,28.81
2023-04-01T06:33:42.441Z,27.54
2023-04-01T06:34:42.437Z,28.07
2023-04-01T06:35:42.444Z,29.70
2023-04-01T06:36:42.407Z,29.12
2023-04-01T06:37:42.429Z,25.15
2023-04-01T06:38:42.381Z,27.37
2023-04-01T06:39:42.403Z,26.20
2023-04-01T06:40:42.340Z,26.05
2023-04-01T06:41:42.349Z,30.36
2023-04-01T06:42:42.361Z,29.10
2023-04-01T06:43:42.303Z,29.16
2023-04-01T06:44:42.292Z,29.24
2023-04-01T06:45:42.315Z,28.54
2023-04-01T06:46:42.296Z,28.17
2023-04-01T06:47:44.033Z,30.09
2023-04-01T06:48:42.223Z,30.38
2023-04-01T06:49:42.208Z,30.76
2023-04-01T06:50:42.195Z,30.97
2023-04-01T06:51:42.186Z,30.64
2023-04-01T06:52:42.164Z,32.11
2023-04-01T06:53:42.131Z,32.00
2023-04-01T06:54:42.101Z,28.69
2023-04-01T06:55:42.098Z,32.89
2023-04-01T06:56:42.062Z,25.11
2023-04-01T06:57:42.065Z,33.79
2023-04-01T06:58:42.073Z,30.61
2023-04-01T06:59:42.003Z,32.06
2023-04-01T07:00:41.989Z,31.53
2023-04-01T07:01:42.015Z,31.25
2023-04-01T07:02:41.966Z,30.46
2023-04-01T07:03:41.920Z,31.65
2023-04-01T07:04:42.009Z,31.12
2023-04-01T07:05:41.892Z,30.62
2023-04-01T07:06:42.160Z,28.60
2023-04-01T07:07:41.866Z,31.42
2023-04-01T07:08:41.833Z,28.29
2023-04-01T07:09:41.809Z,28.41
2023-04-01T07:10:41.783Z,28.57
2023-04-01T07:11:41.761Z,29.88
2023-04-01T07:12:41.753Z,31.54
2023-04-01T07:13:41.739Z,29.02
2023-04-01T07:14:41.730Z,28.33
2023-04-01T07:15:41.697Z,27.09
2023-04-01T07:16:41.745Z,28.80
2023-04-01T07:17:41.665Z,28.93
2023-04-01T07:18:41.648Z,31.01
2023-04-01T07:19:41.617Z,28.18
2023-04-01T07:20:41.868Z,29.99
2023-04-01T07:21:41.580Z,26.54
2023-04-01T07:22:41.590Z,29.39
2023-04-01T07:23:41.550Z,28.74
2023-04-01T07:24:41.520Z,31.07
2023-04-01T07:25:41.492Z,29.32
2023-04-01T07:26:41.471Z,29.95
2023-04-01T07:27:41.456Z,27.10
2023-04-01T07:28:41.446Z,30.09
2023-04-01T07:29:41.417Z,28.27
2023-04-01T07:30:41.437Z,30.70
2023-04-01T07:31:41.361Z,29.48
2023-04-01T07:32:41.368Z,28.24
2023-04-01T07:33:41.338Z,25.70
2023-04-01T07:34:41.318Z,25.83
2023-04-01T07:35:41.327Z,28.27
2023-04-01T07:36:41.297Z,27.97
2023-04-01T07:37:41.288Z,28.11
2023-04-01T07:38:41.359Z,30.26
2023-04-01T07:39:41.272Z,26.76
2023-04-01T07:40:41.258Z,29.02
2023-04-01T07:41:41.242Z,27.67
2023-04-01T07:42:41.223Z,29.28
2023-04-01T07:43:41.231Z,29.29
2023-04-01T07:44:41.225Z,27.06
2023-04-01T07:45:41.194Z,30.85
2023-04-01T07:46:41.255Z,28.46
2023-04-01T07:47:41.192Z,29.93
2023-04-01T07:48:41.167Z,27.02
2023-04-01T07:49:41.157Z,27.86
2023-04-01T07:50:41.124Z,26.13
2023-04-01T07:51:41.108Z,28.11
2023-04-01T07:52:41.079Z,28.03
2023-04-01T07:53:41.064Z,30.14
2023-04-01T07:54:41.063Z,30.55
2023-04-01T07:55:41.024Z,27.96
2023-04-01T07:56:41.003Z,30.06
2023-04-01T07:57:40.982Z,28.00
2023-04-01T07:58:40.959Z,30.39
2023-04-01T07:59:40.957Z,28.51
2023-04-01T08:00:40.910Z,26.61
2023-04-01T08:01:40.892Z,27.66
2023-04-01T08:02:40.927Z,28.36
2023-04-01T08:03:40.927Z,26.89
2023-04-01T08:04:40.881Z,30.63
2023-04-01T08:05:40.824Z,30.05
2023-04-01T08:06:40.771Z,30.69
2023-04-01T08:07:40.760Z,30.57
2023-04-01T08:08:40.722Z,29.86
2023-04-01T08:09:40.731Z,29.32
2023-04-01T08:10:40.750Z,30.21
2023-04-01T08:12:40.641Z,30.58
2023-04-01T08:13:40.620Z,28.55
2023-04-01T08:14:40.599Z,29.02
2023-04-01T08:15:40.564Z,30.80
2023-04-01T08:16:40.674Z,28.02
2023-04-01T08:17:40.564Z,29.68
2023-04-01T08:18:40.596Z,29.22
2023-04-01T08:19:40.476Z,29.34
2023-04-01T08:20:40.444Z,30.54
2023-04-01T08:21:40.411Z,32.12
2023-04-01T08:22:40.398Z,30.21
2023-04-01T08:23:40.375Z,29.29
2023-04-01T08:24:47.143Z,30.44
2023-04-01T08:25:41.314Z,30.68
2023-04-01T08:26:40.295Z,30.64
2023-04-01T08:27:40.273Z,31.02
2023-04-01T08:28:40.248Z,31.33
2023-04-01T08:29:40.221Z,31.76
2023-04-01T08:30:40.190Z,29.05
2023-04-01T08:31:41.032Z,29.00
2023-04-01T08:32:40.170Z,27.55
2023-04-01T08:33:40.119Z,31.91
2023-04-01T08:34:40.111Z,29.36
2023-04-01T08:35:40.307Z,30.58
2023-04-01T08:36:40.032Z,28.59
2023-04-01T08:37:40.012Z,30.67
2023-04-01T08:38:39.982Z,28.82
2023-04-01T08:39:39.953Z,27.91
2023-04-01T08:40:39.927Z,28.98
2023-04-01T08:41:39.925Z,29.94
2023-04-01T08:42:39.886Z,30.39
2023-04-01T08:43:39.883Z,30.95
2023-04-01T08:44:39.849Z,30.16
2023-04-01T08:45:39.850Z,30.63
2023-04-01T08:46:39.817Z,30.13
2023-04-01T08:47:39.850Z,30.65
2023-04-01T08:48:39.770Z,30.90
2023-04-01T08:49:39.761Z,28.43
2023-04-01T08:50:39.737Z,30.74
2023-04-01T08:51:39.710Z,30.91
2023-04-01T08:52:39.700Z,29.93
2023-04-01T08:53:39.693Z,28.78
2023-04-01T08:54:39.674Z,28.87
2023-04-01T08:55:39.662Z,29.47
2023-04-01T08:56:39.629Z,29.24
2023-04-01T08:57:39.603Z,29.86
2023-04-01T08:58:39.585Z,28.30
2023-04-01T08:59:39.564Z,28.57
2023-04-01T09:00:39.544Z,28.85
2023-04-01T09:01:39.518Z,27.97
2023-04-01T09:02:39.562Z,30.02
2023-04-01T09:03:39.578Z,27.95
2023-04-01T09:04:39.485Z,25.90
2023-04-01T09:05:39.441Z,29.60
2023-04-01T09:06:39.443Z,31.63
2023-04-01T09:07:39.425Z,31.99
2023-04-01T09:08:40.004Z,31.28
2023-04-01T09:09:39.415Z,30.64
2023-04-01T09:10:39.419Z,31.90
2023-04-01T09:11:39.423Z,27.41
2023-04-01T09:12:39.398Z,30.34
2023-04-01T09:13:39.393Z,30.78
2023-04-01T09:14:39.385Z,31.94
2023-04-01T09:15:39.413Z,31.98
2023-04-01T09:16:39.349Z,28.67
2023-04-01T09:17:39.459Z,26.63
2023-04-01T09:18:39.345Z,31.39
2023-04-01T09:19:39.347Z,30.62
2023-04-01T09:20:39.326Z,31.34
2023-04-01T09:21:39.311Z,30.20
2023-04-01T09:22:39.315Z,30.23
2023-04-01T09:23:39.305Z,29.27
2023-04-01T09:24:39.299Z,31.62
2023-04-01T09:25:39.289Z,31.07
2023-04-01T09:26:39.278Z,29.03
2023-04-01T09:27:39.253Z,29.71
2023-04-01T09:28:39.250Z,30.55
2023-04-01T09:29:39.246Z,30.41
2023-04-01T09:30:39.233Z,28.81
2023-04-01T09:31:39.284Z,32.22
2023-04-01T09:32:39.241Z,29.77
2023-04-01T09:33:39.202Z,29.14
2023-04-01T09:34:39.200Z,28.24
2023-04-01T09:35:39.212Z,31.12
2023-04-01T09:36:39.167Z,29.94
2023-04-01T09:37:39.150Z,29.63
2023-04-01T09:38:39.162Z,31.96
2023-04-01T09:39:39.251Z,33.22
2023-04-01T09:40:39.173Z,30.07
2023-04-01T09:41:39.171Z,29.51
2023-04-01T09:42:39.162Z,31.23
2023-04-01T09:43:39.150Z,30.28
2023-04-01T09:44:39.890Z,29.53
2023-04-01T09:45:39.165Z,31.37
2023-04-01T09:46:39.189Z,31.13
2023-04-01T09:47:39.161Z,27.91
2023-04-01T09:48:39.131Z,29.77
2023-04-01T09:49:39.149Z,29.68
2023-04-01T09:50:39.121Z,32.45
2023-04-01T09:51:39.134Z,29.11
2023-04-01T09:52:39.120Z,29.55
2023-04-01T09:53:39.121Z,29.66
2023-04-01T09:54:39.129Z,30.74
2023-04-01T09:55:39.112Z,32.55
2023-04-01T09:56:39.107Z,26.05
2023-04-01T09:57:39.084Z,28.34
2023-04-01T09:58:43.929Z,30.20
2023-04-01T09:59:40.070Z,30.27
2023-04-01T10:00:39.054Z,30.71
2023-04-01T10:01:39.059Z,30.95
2023-04-01T10:02:39.052Z,25.92
2023-04-01T10:03:38.973Z,28.20
2023-04-01T10:04:38.946Z,29.50
2023-04-01T10:05:38.976Z,29.06
2023-04-01T10:06:38.908Z,26.86
2023-04-01T10:07:38.897Z,27.04
2023-04-01T10:08:38.873Z,29.26
2023-04-01T10:09:38.845Z,29.88
2023-04-01T10:10:38.825Z,28.17
2023-04-01T10:11:38.798Z,26.41
2023-04-01T10:12:38.771Z,27.11
2023-04-01T10:13:38.754Z,25.00
2023-04-01T10:14:38.705Z,29.25
2023-04-01T10:15:38.705Z,29.34
2023-04-01T10:16:38.924Z,30.23
2023-04-01T10:17:38.739Z,27.84
2023-04-01T10:18:38.676Z,27.25
2023-04-01T10:19:38.667Z,29.00
2023-04-01T10:20:38.699Z,31.09
2023-04-01T10:21:38.684Z,29.97
2023-04-01T10:22:38.711Z,30.89
2023-04-01T10:23:38.720Z,29.69
2023-04-01T10:24:38.735Z,28.44
2023-04-01T10:25:38.756Z,30.14
2023-04-01T10:26:38.766Z,27.11
2023-04-01T10:27:38.830Z,31.72
2023-04-01T10:28:38.820Z,25.67
2023-04-01T10:29:38.817Z,25.00
2023-04-01T10:30:38.838Z,28.18
2023-04-01T10:31:38.916Z,30.78
2023-04-01T10:32:38.910Z,28.76
2023-04-01T10:33:38.876Z,30.80
2023-04-01T10:34:38.871Z,29.91
2023-04-01T10:35:38.916Z,30.24
2023-04-01T10:36:38.861Z,29.43
2023-04-01T10:37:38.879Z,30.57
2023-04-01T10:38:38.864Z,29.16
2023-04-01T10:39:38.851Z,28.45
2023-04-01T10:40:38.911Z,25.42
2023-04-01T10:41:38.866Z,31.52
2023-04-01T10:42:38.914Z,29.44
2023-04-01T10:43:38.911Z,27.80
2023-04-01T10:44:38.918Z,29.89
2023-04-01T10:45:38.942Z,28.85
2023-04-01T10:46:39.033Z,26.42
2023-04-01T10:47:38.975Z,30.27
2023-04-01T10:48:38.998Z,29.10
2023-04-01T10:49:39.003Z,25.52
2023-04-01T10:50:39.016Z,26.69
2023-04-01T10:51:39.031Z,29.26
2023-04-01T10:52:39.059Z,26.86
2023-04-01T10:53:39.081Z,27.51
2023-04-01T10:54:39.069Z,30.68
2023-04-01T10:55:39.089Z,28.33
2023-04-01T10:56:39.124Z,31.42
2023-04-01T10:57:39.144Z,31.93
2023-04-01T10:58:39.200Z,30.53
2023-04-01T10:59:39.212Z,27.11
2023-04-01T11:00:39.256Z,27.06
2023-04-01T11:01:39.384Z,30.32
2023-04-01T11:02:39.375Z,29.09
2023-04-01T11:03:39.474Z,26.99
2023-04-01T11:04:39.401Z,30.54
2023-04-01T11:05:39.422Z,26.82
2023-04-01T11:06:39.453Z,27.50
2023-04-01T11:07:39.493Z,26.87
2023-04-01T11:08:39.539Z,30.75
2023-04-01T11:09:39.558Z,25.00
2023-04-01T11:10:39.593Z,29.23
2023-04-01T11:11:39.601Z,27.01
2023-04-01T11:12:39.651Z,28.22
2023-04-01T11:13:39.692Z,29.03
2023-04-01T11:14:39.729Z,26.55
2023-04-01T11:15:39.812Z,28.20
2023-04-01T11:16:39.902Z,31.69
2023-04-01T11:17:39.860Z,26.41
2023-04-01T11:18:39.884Z,27.37
2023-04-01T11:19:39.937Z,27.58
2023-04-01T11:20:39.992Z,30.11
2023-04-01T11:21:40.004Z,27.74
2023-04-01T11:22:40.027Z,32.34
2023-04-01T11:23:40.071Z,26.04
2023-04-01T11:24:40.083Z,29.81
2023-04-01T11:25:40.120Z,29.98
2023-04-01T11:26:40.174Z,29.34
2023-04-01T11:27:40.196Z,28.61
2023-04-01T11:28:40.253Z,26.06
2023-04-01T11:29:44.364Z,28.46
2023-04-01T11:30:41.269Z,28.70
2023-04-01T11:31:40.277Z,29.25
2023-04-01T11:32:40.245Z,28.53
2023-04-01T11:33:40.195Z,28.05
2023-04-01T11:34:40.178Z,28.13
2023-04-01T11:35:40.167Z,28.25
2023-04-01T11:36:40.263Z,26.48
2023-04-01T11:37:40.094Z,29.03
2023-04-01T11:38:40.062Z,29.52
2023-04-01T11:39:40.030Z,26.75
2023-04-01T11:40:40.035Z,28.52
2023-04-01T11:41:40.095Z,25.42
2023-04-01T11:42:40.104Z,27.52
2023-04-01T11:43:40.162Z,33.31
2023-04-01T11:44:40.193Z,28.88
2023-04-01T11:45:40.214Z,28.87
2023-04-01T11:46:40.340Z,27.20
2023-04-01T11:47:40.354Z,30.29
2023-04-01T11:48:40.333Z,27.66
2023-04-01T11:49:40.371Z,29.63
2023-04-01T11:50:40.391Z,27.34
2023-04-01T11:51:40.398Z,25.17
2023-04-01T11:52:40.409Z,29.93
2023-04-01T11:53:40.460Z,28.84
2023-04-01T11:54:40.470Z,28.45
2023-04-01T11:55:40.488Z,26.73
2023-04-01T11:56:40.501Z,27.31
2023-04-01T11:57:40.519Z,28.82
2023-04-01T11:58:40.527Z,27.93
2023-04-01T11:59:40.539Z,29.40
2023-04-01T12:00:40.541Z,28.54
2023-04-01T12:01:40.554Z,29.05
2023-04-01T12:02:40.684Z,26.84
2023-04-01T12:03:40.788Z,27.13
2023-04-01T12:04:40.710Z,27.36
2023-04-01T12:05:40.708Z,31.74
2023-04-01T12:06:40.733Z,28.01
2023-04-01T12:07:40.778Z,29.05
2023-04-01T12:08:40.809Z,29.61
2023-04-01T12:09:40.821Z,31.92
2023-04-01T12:10:40.888Z,26.67
2023-04-01T12:11:40.903Z,29.12
2023-04-01T12:12:47.753Z,29.90
2023-04-01T12:13:41.902Z,30.08
2023-04-01T12:14:40.871Z,30.24
2023-04-01T12:15:40.859Z,30.34
2023-04-01T12:16:40.892Z,29.27
2023-04-01T12:17:40.864Z,27.93
2023-04-01T12:18:40.774Z,27.43
2023-04-01T12:19:40.743Z,31.03
2023-04-01T12:20:40.738Z,25.79
2023-04-01T12:21:40.698Z,28.15
2023-04-01T12:22:40.668Z,26.25
2023-04-01T12:23:40.635Z,29.25
2023-04-01T12:24:40.609Z,27.42
2023-04-01T12:25:40.588Z,29.91
2023-04-01T12:26:40.564Z,29.83
2023-04-01T12:27:40.561Z,28.16
2023-04-01T12:28:40.551Z,28.26
2023-04-01T12:29:40.555Z,27.46
2023-04-01T12:30:40.543Z,28.67
2023-04-01T12:31:40.560Z,27.64
2023-04-01T12:32:40.569Z,26.47
2023-04-01T12:33:40.510Z,29.57
2023-04-01T12:34:40.513Z,27.35
2023-04-01T12:35:40.501Z,32.15
2023-04-01T12:36:40.483Z,26.65
2023-04-01T12:37:40.443Z,28.13
2023-04-01T12:38:40.445Z,29.34
2023-04-01T12:39:40.472Z,25.94
2023-04-01T12:40:40.475Z,26.54
2023-04-01T12:41:40.438Z,27.87
2023-04-01T12:42:40.436Z,27.67
2023-04-01T12:43:40.416Z,31.04
2023-04-01T12:44:40.399Z,27.97
2023-04-01T12:45:40.401Z,28.70
2023-04-01T12:46:40.375Z,29.93
2023-04-01T12:47:40.413Z,27.21
2023-04-01T12:48:40.357Z,27.80
2023-04-01T12:49:40.351Z,30.72
2023-04-01T12:50:40.347Z,31.95
2023-04-01T12:51:40.344Z,27.33
2023-04-01T12:52:40.331Z,27.84
2023-04-01T12:53:40.343Z,29.20
2023-04-01T12:54:40.323Z,30.40